createdAt,value
2022-12-08T00:01:34.815Z,15.88
2022-12-08T00:04:02.130Z,27.33
2022-12-08T00:06:49.762Z,19.10
2022-12-08T00:09:26.765Z,23.52
2022-12-08T00:12:00.252Z,19.33
2022-12-08T00:14:31.860Z,20.35
2022-12-08T00:16:58.882Z,17.17
2022-12-08T00:19:26.083Z,18.23
2022-12-08T00:21:53.027Z,25.73
2022-12-08T00:24:20.158Z,22.45
2022-12-08T00:26:47.059Z,21.70
2022-12-08T00:29:17.309Z,19.10
2022-12-08T00:31:44.753Z,22.65
2022-12-08T00:34:12.921Z,16.30
2022-12-08T00:36:39.801Z,22.33
2022-12-08T00:39:06.732Z,16.35
2022-12-08T00:41:51.907Z,21.35
2022-12-08T00:44:18.995Z,21.52
2022-12-08T00:46:46.036Z,17.77
2022-12-08T00:49:12.808Z,24.00
2022-12-08T00:51:39.585Z,16.77
2022-12-08T00:54:06.673Z,20.38
2022-12-08T00:56:33.831Z,15.35
2022-12-08T00:59:00.842Z,14.25
2022-12-08T01:01:27.745Z,21.77
2022-12-08T01:03:54.589Z,20.15
2022-12-08T01:06:21.317Z,16.30
2022-12-08T01:08:48.096Z,14.00
2022-12-08T01:11:17.445Z,20.25
2022-12-08T01:13:44.289Z,18.75
2022-12-08T01:16:18.648Z,18.17
2022-12-08T01:18:45.441Z,19.10
2022-12-08T01:21:12.180Z,19.40
2022-12-08T01:23:38.865Z,19.77
2022-12-08T01:26:06.818Z,17.13
2022-12-08T01:28:33.809Z,14.80
2022-12-08T01:31:00.934Z,18.80
2022-12-08T01:33:27.889Z,25.30
2022-12-08T01:35:55.470Z,16.58
2022-12-08T01:38:22.592Z,19.08
2022-12-08T01:40:49.441Z,17.98
2022-12-08T01:43:17.190Z,22.00
2022-12-08T01:45:44.080Z,17.48
2022-12-08T01:48:19.103Z,23.02
2022-12-08T01:50:46.876Z,20.30
2022-12-08T01:53:32.862Z,23.23
2022-12-08T01:56:02.739Z,23.10
2022-12-08T01:58:35.197Z,19.38
2022-12-08T02:01:02.423Z,18.25
2022-12-08T02:03:35.976Z,20.25
2022-12-08T02:06:03.293Z,16.63
2022-12-08T02:08:30.092Z,14.00
2022-12-08T02:10:56.926Z,15.82
2022-12-08T02:13:23.758Z,20.20
2022-12-08T02:15:56.829Z,15.93
2022-12-08T02:18:42.695Z,18.38
2022-12-08T02:21:16.073Z,18.90
2022-12-08T02:24:03.746Z,25.63
2022-12-08T02:26:42.602Z,24.48
2022-12-08T02:29:25.129Z,18.50
2022-12-08T02:32:29.340Z,15.40
2022-12-08T02:35:18.713Z,26.47
2022-12-08T02:38:19.547Z,18.52
2022-12-08T02:41:11.109Z,14.82
2022-12-08T02:44:08.482Z,20.73
2022-12-08T02:46:48.593Z,19.75
2022-12-08T02:49:16.758Z,15.15
2022-12-08T02:51:43.609Z,18.85
2022-12-08T02:54:10.330Z,14.48
2022-12-08T02:57:17.480Z,27.83
2022-12-08T03:00:17.143Z,20.95
2022-12-08T03:03:08.058Z,19.80
2022-12-08T03:05:56.206Z,15.57
2022-12-08T03:08:51.393Z,15.15
2022-12-08T03:11:30.480Z,23.45
2022-12-08T03:13:59.390Z,19.77
2022-12-08T03:16:28.306Z,19.40
2022-12-08T03:19:19.857Z,21.77
2022-12-08T03:22:02.813Z,14.68
2022-12-08T03:24:37.498Z,19.77
2022-12-08T03:27:14.907Z,23.33
2022-12-08T03:29:41.720Z,20.42
2022-12-08T03:32:23.318Z,24.27
2022-12-08T03:34:50.642Z,21.50
2022-12-08T03:37:17.441Z,24.05
2022-12-08T03:39:44.196Z,29.60
2022-12-08T03:42:10.982Z,17.92
2022-12-08T03:44:37.737Z,20.27
2022-12-08T03:47:04.612Z,25.58
2022-12-08T03:49:31.326Z,17.27
2022-12-08T03:51:58.027Z,24.13
2022-12-08T03:54:24.784Z,18.48
2022-12-08T03:56:51.488Z,22.60
2022-12-08T03:59:18.260Z,21.10
2022-12-08T04:01:45.079Z,20.27
2022-12-08T04:04:11.870Z,18.23
2022-12-08T04:06:38.620Z,19.73
2022-12-08T04:09:05.339Z,21.10
2022-12-08T04:11:32.050Z,19.05
2022-12-08T04:13:58.817Z,23.98
2022-12-08T04:16:26.628Z,22.95
2022-12-08T04:18:53.507Z,27.90
2022-12-08T04:21:20.268Z,26.27
2022-12-08T04:23:47.069Z,20.30
2022-12-08T04:26:13.986Z,20.35
2022-12-08T04:28:40.791Z,19.77
2022-12-08T04:31:07.618Z,25.58
2022-12-08T04:33:35.316Z,15.23
2022-12-08T04:36:03.110Z,18.65
2022-12-08T04:38:29.912Z,25.98
2022-12-08T04:40:56.642Z,22.80
2022-12-08T04:43:23.403Z,22.65
2022-12-08T04:45:50.348Z,17.17
2022-12-08T04:48:17.136Z,22.23
2022-12-08T04:50:44.836Z,16.10
2022-12-08T04:53:12.104Z,18.85
2022-12-08T04:55:43.800Z,22.05
2022-12-08T04:58:14.429Z,23.63
2022-12-08T05:00:41.841Z,19.85
2022-12-08T05:03:08.757Z,21.48
2022-12-08T05:05:35.536Z,23.08
2022-12-08T05:08:02.594Z,18.33
2022-12-08T05:10:29.419Z,23.17
2022-12-08T05:12:56.158Z,21.45
2022-12-08T05:15:22.898Z,19.23
2022-12-08T05:17:49.727Z,18.85
2022-12-08T05:20:16.547Z,24.40
2022-12-08T05:22:43.740Z,18.50
2022-12-08T05:25:10.444Z,19.13
2022-12-08T05:27:37.467Z,20.38
2022-12-08T05:30:05.112Z,20.88
2022-12-08T05:32:32.060Z,23.10
2022-12-08T05:34:58.772Z,21.88
2022-12-08T05:37:25.505Z,17.23
2022-12-08T05:39:52.245Z,22.88
2022-12-08T05:42:24.357Z,21.40
2022-12-08T05:44:51.595Z,19.40
2022-12-08T05:47:18.338Z,24.70
2022-12-08T05:49:45.141Z,22.88
2022-12-08T05:52:11.934Z,27.02
2022-12-08T05:54:38.763Z,22.13
2022-12-08T05:57:05.749Z,24.45
2022-12-08T05:59:32.651Z,18.50
2022-12-08T06:01:59.500Z,20.20
2022-12-08T06:04:26.417Z,19.65
2022-12-08T06:06:53.143Z,21.20
2022-12-08T06:09:19.911Z,21.60
2022-12-08T06:11:47.291Z,24.75
2022-12-08T06:14:14.082Z,23.63
2022-12-08T06:16:40.980Z,22.33
2022-12-08T06:19:07.770Z,20.10
2022-12-08T06:21:34.829Z,22.23
2022-12-08T06:24:01.602Z,19.98
2022-12-08T06:26:29.043Z,28.63
2022-12-08T06:28:55.906Z,21.30
2022-12-08T06:31:24.787Z,26.83
2022-12-08T06:33:51.978Z,20.40
2022-12-08T06:36:19.681Z,20.48
2022-12-08T06:38:46.622Z,23.10
2022-12-08T06:41:13.665Z,21.58
2022-12-08T06:43:41.201Z,25.73
2022-12-08T06:46:10.573Z,18.33
2022-12-08T06:48:37.392Z,20.60
2022-12-08T06:51:08.702Z,19.08
2022-12-08T06:53:35.454Z,20.15
2022-12-08T06:56:02.186Z,20.70
2022-12-08T06:58:29.015Z,17.40
2022-12-08T07:00:55.821Z,26.20
2022-12-08T07:03:22.682Z,22.77
2022-12-08T07:05:49.491Z,19.40
2022-12-08T07:08:16.385Z,18.67
2022-12-08T07:10:43.233Z,22.63
2022-12-08T07:13:09.967Z,25.10
2022-12-08T07:15:36.848Z,19.20
2022-12-08T07:18:03.759Z,22.05
2022-12-08T07:20:30.512Z,19.52
2022-12-08T07:22:57.481Z,21.75
2022-12-08T07:25:24.319Z,20.35
2022-12-08T07:27:52.706Z,23.23
2022-12-08T07:30:19.602Z,33.40
2022-12-08T07:32:46.381Z,32.40
2022-12-08T07:35:13.415Z,31.45
2022-12-08T07:37:40.262Z,27.52
2022-12-08T07:40:08.065Z,22.38
2022-12-08T07:42:35.086Z,27.02
2022-12-08T07:45:02.345Z,21.70
2022-12-08T07:47:29.132Z,19.13
2022-12-08T07:49:55.844Z,22.95
2022-12-08T07:52:23.407Z,25.17
2022-12-08T07:54:50.173Z,23.27
2022-12-08T07:57:17.024Z,22.23
2022-12-08T07:59:43.797Z,25.45
2022-12-08T08:02:25.411Z,26.00
2022-12-08T08:04:53.000Z,21.92
2022-12-08T08:07:19.878Z,22.13
2022-12-08T08:09:46.703Z,27.02
2022-12-08T08:15:00.888Z,22.77
2022-12-08T08:17:28.585Z,22.20
2022-12-08T08:19:55.592Z,17.90
2022-12-08T08:22:22.373Z,23.92
2022-12-08T08:24:49.131Z,19.85
2022-12-08T08:27:15.910Z,26.23
2022-12-08T08:29:42.699Z,23.35
2022-12-08T08:32:09.501Z,18.45
2022-12-08T08:34:36.389Z,30.27
2022-12-08T08:37:03.216Z,23.23
2022-12-08T08:39:31.817Z,24.38
2022-12-08T08:41:58.577Z,19.83
2022-12-08T08:44:25.647Z,18.80
2022-12-08T08:46:52.405Z,25.60
2022-12-08T08:49:19.180Z,24.88
2022-12-08T08:51:46.181Z,24.90
2022-12-08T08:54:12.941Z,23.30
2022-12-08T08:56:39.682Z,20.27
2022-12-08T08:59:06.625Z,22.98
2022-12-08T09:01:34.092Z,24.52
2022-12-08T09:04:01.464Z,22.83
2022-12-08T09:06:28.717Z,23.95
2022-12-08T09:08:55.797Z,20.05
2022-12-08T09:11:23.627Z,25.75
2022-12-08T09:13:51.190Z,24.58
2022-12-08T09:16:18.329Z,26.50
2022-12-08T09:18:45.171Z,24.25
2022-12-08T09:21:15.231Z,22.42
2022-12-08T09:23:42.417Z,21.50
2022-12-08T09:26:09.158Z,22.80
2022-12-08T09:28:35.935Z,24.30
2022-12-08T09:31:02.861Z,19.90
2022-12-08T09:33:29.621Z,28.23
2022-12-08T09:35:56.495Z,22.27
2022-12-08T09:38:23.369Z,22.23
2022-12-08T09:40:51.825Z,22.83
2022-12-08T09:43:51.667Z,29.40
2022-12-08T09:46:19.199Z,18.15
2022-12-08T09:48:51.910Z,21.83
2022-12-08T09:51:18.690Z,21.95
2022-12-08T09:53:50.967Z,22.13
2022-12-08T09:56:19.772Z,17.83
2022-12-08T09:59:00.462Z,23.48
2022-12-08T10:01:35.164Z,24.70
2022-12-08T10:04:02.220Z,25.50
2022-12-08T10:06:47.314Z,26.25
2022-12-08T10:09:32.668Z,23.30
2022-12-08T10:12:20.038Z,21.55
2022-12-08T10:15:09.606Z,21.67
2022-12-08T10:17:40.284Z,27.88
2022-12-08T10:20:21.683Z,19.75
2022-12-08T10:22:51.016Z,21.63
2022-12-08T10:25:33.393Z,20.35
2022-12-08T10:28:00.163Z,20.38
2022-12-08T10:30:27.021Z,24.75
2022-12-08T10:32:54.010Z,26.48
2022-12-08T10:35:21.823Z,24.52
2022-12-08T10:38:01.591Z,22.40
2022-12-08T10:40:29.675Z,20.98
2022-12-08T10:42:57.625Z,27.83
2022-12-08T10:45:29.643Z,20.75
2022-12-08T10:48:04.438Z,26.55
2022-12-08T10:50:33.955Z,24.80
2022-12-08T10:53:01.741Z,22.17
2022-12-08T10:55:28.883Z,19.83
2022-12-08T10:57:55.668Z,18.95
2022-12-08T11:00:25.182Z,48.10
2022-12-08T11:02:53.302Z,24.48
2022-12-08T11:05:20.627Z,28.48
2022-12-08T11:07:52.170Z,19.30
2022-12-08T11:10:19.687Z,22.23
2022-12-08T11:12:46.567Z,17.90
2022-12-08T11:15:16.675Z,20.55
2022-12-08T11:17:45.885Z,18.98
2022-12-08T11:20:19.701Z,18.98
2022-12-08T11:22:54.312Z,22.08
2022-12-08T11:25:22.817Z,20.20
2022-12-08T11:27:50.338Z,22.67
2022-12-08T11:30:21.220Z,23.73
2022-12-08T11:33:09.337Z,28.15
2022-12-08T11:35:40.294Z,25.95
2022-12-08T11:38:22.671Z,28.15
2022-12-08T11:41:03.649Z,25.58
2022-12-08T11:43:49.214Z,29.42
2022-12-08T11:46:25.318Z,20.25
2022-12-08T11:49:06.358Z,24.55
2022-12-08T11:51:56.009Z,29.55
2022-12-08T11:54:24.512Z,22.33
2022-12-08T11:56:56.183Z,22.70
2022-12-08T11:59:38.370Z,25.35
2022-12-08T12:02:05.573Z,22.30
2022-12-08T12:04:37.324Z,22.15
2022-12-08T12:07:15.291Z,31.02
2022-12-08T12:09:45.118Z,25.83
2022-12-08T12:12:39.442Z,25.98
2022-12-08T12:15:34.783Z,23.23
2022-12-08T12:20:43.092Z,62.63
2022-12-08T12:23:17.173Z,30.92
2022-12-08T12:28:17.984Z,33.57
2022-12-08T12:31:04.988Z,20.40
2022-12-08T12:33:32.113Z,25.45
2022-12-08T12:36:01.516Z,25.33
2022-12-08T12:38:54.927Z,20.73
2022-12-08T12:41:29.660Z,24.30
2022-12-08T12:44:08.677Z,26.60
2022-12-08T12:46:53.884Z,21.02
2022-12-08T12:49:39.254Z,25.67
2022-12-08T12:52:23.981Z,22.20
2022-12-08T12:54:50.749Z,23.83
2022-12-08T12:57:20.577Z,23.88
2022-12-08T12:59:54.688Z,23.40
2022-12-08T13:02:38.450Z,25.00
2022-12-08T13:05:27.720Z,15.63
2022-12-08T13:08:19.309Z,19.00
2022-12-08T13:11:04.255Z,24.02
2022-12-08T13:13:31.023Z,24.40
2022-12-08T13:16:15.405Z,27.10
2022-12-08T13:18:48.781Z,20.17
2022-12-08T13:21:18.705Z,23.08
2022-12-08T13:24:08.359Z,27.35
2022-12-08T13:26:36.973Z,23.55
2022-12-08T13:29:05.273Z,14.82
2022-12-08T13:31:58.146Z,23.05
2022-12-08T13:34:39.339Z,21.60
2022-12-08T13:37:12.337Z,15.65
2022-12-08T13:39:43.657Z,30.73
2022-12-08T13:42:13.497Z,15.88
2022-12-08T13:46:04.321Z,22.55
2022-12-08T13:48:30.107Z,26.27
2022-12-08T13:57:11.506Z,25.67
2022-12-08T13:59:43.423Z,19.65
2022-12-08T14:02:42.056Z,22.50
2022-12-08T14:05:26.603Z,23.45
2022-12-08T14:07:59.237Z,56.45
2022-12-08T14:10:30.563Z,21.70
2022-12-08T14:13:05.491Z,15.63
2022-12-08T14:15:38.683Z,17.92
2022-12-08T14:18:05.952Z,13.35
2022-12-08T14:20:51.729Z,17.10
2022-12-08T14:23:20.839Z,13.45
2022-12-08T14:25:47.802Z,14.52
2022-12-08T14:28:14.555Z,11.60
2022-12-08T14:30:41.339Z,16.98
2022-12-08T14:33:12.713Z,10.23
2022-12-08T14:35:39.843Z,36.20
2022-12-08T14:38:17.129Z,26.13
2022-12-08T14:40:45.284Z,18.90
2022-12-08T14:43:14.934Z,18.27
2022-12-08T14:45:44.879Z,12.85
2022-12-08T14:48:30.512Z,11.93
2022-12-08T14:51:03.204Z,17.63
2022-12-08T14:53:39.633Z,14.90
2022-12-08T14:56:37.064Z,20.45
2022-12-08T14:59:23.080Z,18.58
2022-12-08T15:01:51.029Z,16.40
2022-12-08T15:04:19.845Z,19.38
2022-12-08T15:07:03.215Z,10.52
2022-12-08T15:09:32.345Z,16.42
2022-12-08T15:12:06.607Z,9.35
2022-12-08T15:14:37.555Z,12.63
2022-12-08T15:17:04.744Z,13.55
2022-12-08T15:19:33.282Z,22.90
2022-12-08T15:22:12.322Z,18.80
2022-12-08T15:24:39.120Z,11.43
2022-12-08T15:27:05.963Z,16.45
2022-12-08T15:29:32.886Z,26.63
2022-12-08T15:32:01.094Z,14.18
2022-12-08T15:34:27.862Z,19.30
2022-12-08T15:36:54.828Z,16.25
2022-12-08T15:39:36.250Z,11.43
2022-12-08T15:42:04.239Z,18.55
2022-12-08T15:44:32.756Z,16.98
2022-12-08T15:47:00.099Z,14.88
2022-12-08T15:49:26.973Z,10.75
2022-12-08T15:52:04.960Z,19.00
2022-12-08T15:54:37.818Z,15.05
2022-12-08T15:57:20.253Z,15.65
2022-12-08T15:59:51.293Z,16.33
2022-12-08T16:02:22.597Z,15.07
2022-12-08T16:07:38.261Z,16.50
2022-12-08T16:10:07.092Z,11.23
2022-12-08T16:15:59.274Z,18.42
2022-12-08T16:18:28.986Z,15.02
2022-12-08T16:21:09.651Z,19.30
2022-12-08T16:23:44.679Z,15.70
2022-12-08T16:26:28.374Z,20.55
2022-12-08T16:29:03.063Z,18.55
2022-12-08T16:31:30.403Z,15.52
2022-12-08T16:33:57.193Z,13.02
2022-12-08T16:36:23.916Z,20.90
2022-12-08T16:38:50.694Z,12.93
2022-12-08T16:41:36.114Z,26.95
2022-12-08T16:44:03.657Z,16.27
2022-12-08T16:46:30.710Z,19.10
2022-12-08T16:48:58.890Z,13.32
2022-12-08T16:51:27.280Z,11.70
2022-12-08T16:53:57.969Z,18.83
2022-12-08T16:56:30.584Z,19.05
2022-12-08T16:58:59.238Z,21.15
2022-12-08T17:01:29.133Z,21.45
2022-12-08T17:04:22.948Z,22.35
2022-12-08T17:06:42.770Z,27.58
2022-12-08T17:09:09.570Z,21.38
2022-12-08T17:11:42.596Z,24.67
2022-12-08T17:14:10.275Z,23.95
2022-12-08T17:16:37.164Z,23.77
2022-12-08T17:19:04.582Z,25.13
2022-12-08T17:21:32.139Z,22.15
2022-12-08T17:23:59.240Z,35.42
2022-12-08T17:26:29.283Z,18.85
2022-12-08T17:29:00.877Z,25.35
2022-12-08T17:31:30.204Z,33.08
2022-12-08T17:34:04.587Z,33.10
2022-12-08T17:38:59.042Z,27.42
2022-12-08T17:41:25.959Z,25.23
2022-12-08T17:43:52.721Z,28.30
2022-12-08T17:46:19.798Z,26.70
2022-12-08T17:48:46.851Z,26.17
2022-12-08T17:51:13.643Z,28.63
2022-12-08T17:53:40.826Z,20.30
2022-12-08T17:56:14.321Z,25.92
2022-12-08T17:58:41.271Z,32.63
2022-12-08T18:01:09.274Z,41.85
2022-12-08T18:03:36.439Z,31.88
2022-12-08T18:06:10.660Z,36.22
2022-12-08T18:11:05.018Z,38.03
2022-12-08T18:13:31.852Z,42.28
2022-12-08T18:15:58.595Z,34.88
2022-12-08T18:18:25.370Z,41.03
2022-12-08T18:20:52.244Z,40.22
2022-12-08T18:23:19.026Z,46.10
2022-12-08T18:25:45.786Z,37.13
2022-12-08T18:28:12.522Z,50.97
2022-12-08T18:30:39.888Z,46.47
2022-12-08T18:33:07.132Z,47.67
2022-12-08T18:35:34.038Z,50.42
2022-12-08T18:38:00.795Z,58.17
2022-12-08T18:40:28.376Z,41.67
2022-12-08T18:42:55.216Z,45.47
2022-12-08T18:45:22.885Z,41.08
2022-12-08T18:47:50.638Z,42.28
2022-12-08T18:50:17.767Z,49.42
2022-12-08T18:52:45.292Z,40.08
2022-12-08T18:55:12.145Z,41.15
2022-12-08T18:57:39.445Z,31.95
2022-12-08T19:00:08.108Z,38.10
2022-12-08T19:02:36.164Z,29.92
2022-12-08T19:05:03.090Z,38.00
2022-12-08T19:07:29.978Z,33.25
2022-12-08T19:09:56.735Z,29.83
2022-12-08T19:12:23.490Z,27.25
2022-12-08T19:14:50.370Z,30.10
2022-12-08T19:17:17.122Z,30.10
2022-12-08T19:19:43.938Z,36.63
2022-12-08T19:22:10.804Z,38.95
2022-12-08T19:24:37.576Z,28.80
2022-12-08T19:27:05.761Z,29.45
2022-12-08T19:29:32.525Z,23.45
2022-12-08T19:32:00.320Z,20.95
2022-12-08T19:34:27.456Z,28.50
2022-12-08T19:36:54.297Z,24.95
2022-12-08T19:39:41.060Z,27.65
2022-12-08T19:42:36.603Z,30.77
2022-12-08T19:45:12.262Z,32.47
2022-12-08T19:47:39.723Z,31.13
2022-12-08T19:50:25.977Z,28.88
2022-12-08T19:52:53.214Z,25.85
2022-12-08T19:55:20.542Z,34.47
2022-12-08T19:57:47.294Z,27.88
2022-12-08T20:00:14.384Z,28.67
2022-12-08T20:02:41.963Z,29.80
2022-12-08T20:05:11.092Z,29.15
2022-12-08T20:07:38.133Z,34.40
2022-12-08T20:10:06.598Z,22.73
2022-12-08T20:12:33.630Z,26.25
2022-12-08T20:15:00.556Z,32.88
2022-12-08T20:17:27.383Z,24.60
2022-12-08T20:19:54.316Z,34.20
2022-12-08T20:22:21.087Z,34.50
2022-12-08T20:24:56.428Z,28.42
2022-12-08T20:27:26.672Z,24.95
2022-12-08T20:29:53.487Z,27.63
2022-12-08T20:32:20.242Z,38.53
2022-12-08T20:34:47.102Z,34.53
2022-12-08T20:37:14.006Z,36.92
2022-12-08T20:39:40.908Z,32.78
2022-12-08T20:42:10.350Z,30.20
2022-12-08T20:44:43.201Z,34.88
2022-12-08T20:47:11.117Z,32.70
2022-12-08T20:49:38.425Z,30.30
2022-12-08T20:52:05.597Z,28.73
2022-12-08T20:54:32.473Z,28.92
2022-12-08T20:56:59.337Z,36.53
2022-12-08T20:59:26.981Z,26.42
2022-12-08T21:01:54.100Z,26.10
2022-12-08T21:04:24.080Z,35.15
2022-12-08T21:06:51.276Z,32.72
2022-12-08T21:09:18.229Z,32.55
2022-12-08T21:11:45.424Z,32.25
2022-12-08T21:14:12.556Z,25.42
2022-12-08T21:16:39.360Z,21.23
2022-12-08T21:19:06.373Z,23.88
2022-12-08T21:21:33.318Z,29.98
2022-12-08T21:24:01.075Z,27.10
2022-12-08T21:26:28.401Z,25.67
2022-12-08T21:28:55.326Z,24.75
2022-12-08T21:31:22.536Z,33.72
2022-12-08T21:33:49.915Z,26.20
2022-12-08T21:36:18.373Z,27.65
2022-12-08T21:38:45.610Z,28.85
2022-12-08T21:41:37.632Z,28.52
2022-12-08T21:44:05.421Z,33.50
2022-12-08T21:46:33.115Z,32.63
2022-12-08T21:48:59.961Z,26.33
2022-12-08T21:51:28.119Z,28.45
2022-12-08T21:53:55.071Z,24.25
2022-12-08T21:56:22.042Z,33.80
2022-12-08T21:58:49.529Z,26.48
2022-12-08T22:01:16.538Z,24.08
2022-12-08T22:03:43.570Z,26.42
2022-12-08T22:06:13.564Z,33.45
2022-12-08T22:08:41.164Z,27.52
2022-12-08T22:11:08.436Z,28.60
2022-12-08T22:13:36.290Z,35.85
2022-12-08T22:16:07.544Z,32.22
2022-12-08T22:18:34.706Z,34.58
2022-12-08T22:21:02.554Z,29.20
2022-12-08T22:23:29.364Z,29.48
2022-12-08T22:25:57.984Z,34.55
2022-12-08T22:28:25.466Z,28.55
2022-12-08T22:30:52.401Z,23.58
2022-12-08T22:33:19.452Z,28.13
2022-12-08T22:35:56.206Z,29.00
2022-12-08T22:38:22.885Z,29.10
2022-12-08T22:40:49.713Z,22.17
2022-12-08T22:43:16.462Z,21.67
2022-12-08T22:45:43.436Z,25.73
2022-12-08T22:48:10.632Z,25.75
2022-12-08T22:50:37.461Z,20.83
2022-12-08T22:53:04.269Z,32.95
2022-12-08T22:55:34.127Z,23.02
2022-12-08T22:58:01.072Z,24.45
2022-12-08T23:00:28.114Z,24.85
2022-12-08T23:02:54.923Z,28.90
2022-12-08T23:05:21.804Z,35.80
2022-12-08T23:07:48.736Z,30.95
2022-12-08T23:10:15.629Z,29.13
2022-12-08T23:12:42.504Z,25.58
2022-12-08T23:15:09.579Z,22.75
2022-12-08T23:17:36.598Z,22.92
2022-12-08T23:20:04.212Z,21.55
2022-12-08T23:22:31.392Z,20.13
2022-12-08T23:25:00.384Z,27.33
2022-12-08T23:27:27.161Z,26.92
2022-12-08T23:29:54.200Z,23.55
2022-12-08T23:32:21.459Z,23.65
2022-12-08T23:34:48.582Z,28.50
2022-12-08T23:37:15.476Z,23.70
2022-12-08T23:39:45.111Z,20.02
2022-12-08T23:42:13.335Z,27.60
2022-12-08T23:44:40.208Z,27.58
2022-12-08T23:47:07.270Z,21.58
2022-12-08T23:49:34.137Z,24.00
2022-12-08T23:52:00.918Z,18.52
2022-12-08T23:54:27.649Z,20.85
2022-12-08T23:56:54.569Z,21.50
2022-12-08T23:59:22.129Z,23.13
